Disney Wonder — C6QM8 — position and weather

sailwx.info

Track history (hours):
 
Tides and Currents Weather Stations Pressure Air Temp Water Temp Dewpoint Dewpoint Depression Visibility Wind Speed Wind Dir Waves Ship Positions

Disney Wonder

Last reported at 2018-Jul-22 07:00 UTC. Time now 2018-Jul-22 06:58 UTC.
Position N 54°34' W 131°15'.

Length 301 m; draft 8.2 m.

Type: Passenger vessel. MMSI: 308457000.

Date/timePositionNaut miles runAvg speedWind from/ knotsBaromVisibWave heightAir tempDewpointWater temp
2018-Jul-22 07:00N 54°34' W 131°15'125 5.9
2018-Jul-21 10:00N 56°06' W 133°42'40 1.7 220 / 51023.0 5.4 12.010.110.0
2018-Jul-20 11:00N 55°30' W 134°12'10314.1 320 / 261024.0 5.4 12.010.110.0
2018-Jul-20 03:42N 54°27' W 131°49'416.6
2018-Jul-20 03:26N 54°26' W 131°42'716.4
2018-Jul-20 03:00N 54°25' W 131°30'816.3
2018-Jul-20 02:30N 54°22' W 131°17'816.4
2018-Jul-20 02:00N 54°20' W 131°03'816.3
2018-Jul-20 01:30N 54°18' W 130°50'713.8
2018-Jul-20 01:00N 54°14' W 130°41'917.8
2018-Jul-20 00:30N 54°09' W 130°28'917.7
2018-Jul-20 00:00N 54°03' W 130°16'917.6
2018-Jul-19 23:30N 53°55' W 130°11'917.4
2018-Jul-19 23:00N 53°49' W 129°60'8516.8
2018-Jul-19 17:58N 52°35' W 128°53'817.6
2018-Jul-19 17:30N 52°27' W 128°52'917.2
2018-Jul-19 17:01N 52°18' W 128°51'917.3
2018-Jul-19 16:30N 52°09' W 128°52'917.4
2018-Jul-19 16:00N 52°01' W 128°47'917.2
2018-Jul-19 15:31N 51°53' W 128°41'917.4
2018-Jul-19 15:00N 51°45' W 128°36'816.9
2018-Jul-19 14:30N 51°37' W 128°32'1717.1
2018-Jul-19 13:30N 51°20' W 128°29'917.2
2018-Jul-19 13:00N 51°14' W 128°20'917.4
2018-Jul-19 12:30N 51°08' W 128°09'917.5
2018-Jul-19 12:00N 51°03' W 127°58'918.1
2018-Jul-19 11:30N 50°58' W 127°46'918.4
2018-Jul-19 11:00N 50°52' W 127°35'918.3
2018-Jul-19 10:31N 50°49' W 127°21'918.2
2018-Jul-19 10:00N 50°45' W 127°08'3212.9
2018-Jul-19 10:00N 50°42' W 127°06'714.9 270 / 171022.0 5.4 14.0 8.010.0
2018-Jul-19 09:30N 50°42' W 126°54'918.0
2018-Jul-19 09:00N 50°36' W 126°43'713.6
2018-Jul-19 08:30N 50°31' W 126°36'4618.4
2018-Jul-19 06:00N 50°20' W 125°26'816.7
2018-Jul-19 05:29N 50°12' W 125°22'612.9
2018-Jul-19 05:01N 50°07' W 125°18'713.4
2018-Jul-19 04:30N 50°01' W 125°13'714.9
2018-Jul-19 04:01N 49°55' W 125°05'918.6
2018-Jul-19 03:30N 49°50' W 124°54'816.6
2018-Jul-19 03:00N 49°45' W 124°43'917.3
2018-Jul-19 02:30N 49°39' W 124°33'4720.5
2018-Jul-19 00:11N 49°19' W 123°27'721.7
2018-Jul-18 23:53N 49°19' W 123°17'615.7
2018-Jul-18 23:30N 49°19' W 123°07'1 2.3
2018-Jul-18 22:58N 49°17' W 123°07'0 0.0
2018-Jul-18 22:28N 49°17' W 123°07'0 0.0
2018-Jul-18 21:58N 49°17' W 123°07'0 0.0
2018-Jul-18 21:28N 49°17' W 123°07'0 0.0
2018-Jul-18 20:58N 49°17' W 123°07'0 0.0
2018-Jul-18 20:28N 49°17' W 123°07'0 0.0
2018-Jul-18 19:58N 49°17' W 123°07'0 0.0
2018-Jul-18 19:28N 49°17' W 123°07'0 0.0
2018-Jul-18 18:58N 49°17' W 123°07'0 0.0
2018-Jul-18 18:13N 49°17' W 123°07'0 0.0
2018-Jul-18 15:01N 49°17' W 123°07'0 0.0
2018-Jul-18 14:43N 49°17' W 123°07'0 0.0
2018-Jul-18 14:13N 49°17' W 123°07'1 1.8
2018-Jul-18 13:29N 49°19' W 123°08'4 8.9
2018-Jul-18 13:00N 49°19' W 123°14'3411.2
2018-Jul-18 10:00N 49°18' W 124°06'432.1 280 / 181016.010.8 19.015.615.0
2018-Jul-18 09:51N 49°22' W 124°05'812.1
2018-Jul-18 09:11N 49°25' W 124°17'511.8
2018-Jul-18 08:45N 49°27' W 124°24'511.7
2018-Jul-18 08:19N 49°31' W 124°30'511.7
2018-Jul-18 07:55N 49°35' W 124°34'511.8
2018-Jul-18 07:30N 49°38' W 124°39'611.7
2018-Jul-18 07:00N 49°42' W 124°45'611.4
2018-Jul-18 06:31N 49°47' W 124°51'611.5
2018-Jul-18 06:00N 49°51' W 124°58'917.1
2018-Jul-18 05:30N 49°56' W 125°08'714.8
2018-Jul-18 05:00N 50°03' W 125°14'714.4
2018-Jul-18 04:30N 50°08' W 125°21'6314.3
2018-Jul-18 00:06N 50°38' W 126°48'320.2
2018-Jul-17 23:58N 50°40' W 126°52'1022.0
2018-Jul-17 23:30N 50°44' W 127°06'1122.1
2018-Jul-17 23:00N 50°48' W 127°22'1122.0
2018-Jul-17 22:30N 50°54' W 127°38'1121.6
2018-Jul-17 22:00N 51°01' W 127°50'1121.5
2018-Jul-17 21:31N 51°12' W 127°53'1121.5
2018-Jul-17 21:00N 51°22' W 127°52'11698.7
2018-Jul-17 21:00N 51°12' W 127°48'2144.1 280 / 221018.010.8 16.014.310.0
2018-Jul-17 20:30N 51°33' W 127°52'1122.0
2018-Jul-17 20:01N 51°44' W 127°56'1121.6
2018-Jul-17 19:30N 51°55' W 127°56'1019.3
2018-Jul-17 19:01N 52°04' W 127°58'714.0
2018-Jul-17 18:31N 52°08' W 128°08'5 8.4
2018-Jul-17 17:55N 52°13' W 128°08'716.8
2018-Jul-17 17:29N 52°15' W 128°19'816.6
2018-Jul-17 17:00N 52°15' W 128°32'816.5
2018-Jul-17 16:30N 52°13' W 128°45'1021.0
2018-Jul-17 16:01N 52°11' W 129°02'1122.1
2018-Jul-17 15:31N 52°12' W 129°20'1121.2
2018-Jul-17 15:00N 52°14' W 129°37'1222.8
2018-Jul-17 14:30N 52°23' W 129°48'6622.1
2018-Jul-17 11:30N 53°17' W 130°53'1120.7
2018-Jul-17 10:59N 53°26' W 131°00'1021.3
2018-Jul-17 10:31N 53°37' W 130°59'1121.5
2018-Jul-17 10:00N 53°47' W 130°59'3218.3
2018-Jul-17 10:00N 53°48' W 130°54'1123.0 340 / 71020.0 5.4 14.012.210.0
2018-Jul-17 09:30N 53°59' W 131°00'1122.4
2018-Jul-17 09:00N 54°10' W 131°01'917.2
2018-Jul-17 08:30N 54°18' W 130°60'611.9
2018-Jul-17 08:01N 54°21' W 131°09'1122.3
2018-Jul-17 07:30N 54°24' W 131°27'16116.9
2018-Jul-16 22:00N 56°30' W 134°24'96 8.7 180 / 141018.0 5.4 12.010.110.0
2018-Jul-16 11:00N 58°06' W 134°12'28 1.2 220 / 61014.0 5.4 12.010.110.0
2018-Jul-15 11:00N 58°18' W 135°00'16 6.7 160 / 161020.0 5.4 11.0 9.010.0
2018-Jul-15 08:35N 58°13' W 135°29'315.0
2018-Jul-15 08:22N 58°15' W 135°35'514.5
2018-Jul-15 08:00N 58°17' W 135°43'714.3
2018-Jul-15 07:30N 58°17' W 135°57'814.9
2018-Jul-15 06:59N 58°16' W 136°11'56 2.8
2018-Jul-14 11:00N 58°30' W 137°54'5414.0 150 / 71026.010.8 12.0 7.910.0
2018-Jul-14 07:10N 58°17' W 136°15'615.7
2018-Jul-14 06:49N 58°15' W 136°05'515.9
2018-Jul-14 06:30N 58°16' W 135°56'714.8
2018-Jul-14 06:00N 58°17' W 135°42'917.3
2018-Jul-14 05:29N 58°14' W 135°26'5 0.2
2018-Jul-13 03:04N 58°09' W 135°22'92 5.7
2018-Jul-12 11:00N 56°42' W 134°30'   160 / 121025.0 5.4 12.0 7.910.0
Track history (hours):
 
Tides and Currents Weather Stations Pressure Air Temp Water Temp Dewpoint Dewpoint Depression Visibility Wind Speed Wind Dir Waves Ship Positions

Disney Wonder

Last reported at 2018-Jul-22 07:00 UTC. Time now 2018-Jul-22 06:58 UTC.
Position N 54°34' W 131°15'.

Length 301 m; draft 8.2 m.

Type: Passenger vessel. MMSI: 308457000.

Date/timePositionNaut miles runAvg speedWind from/ knotsBaromVisibWave heightAir tempDewpointWater temp
2018-Jul-22 07:00N 54°34' W 131°15'125 5.9
2018-Jul-21 10:00N 56°06' W 133°42'40 1.7 220 / 51023.0 5.4 12.010.110.0
2018-Jul-20 11:00N 55°30' W 134°12'10314.1 320 / 261024.0 5.4 12.010.110.0
2018-Jul-20 03:42N 54°27' W 131°49'416.6
2018-Jul-20 03:26N 54°26' W 131°42'716.4
2018-Jul-20 03:00N 54°25' W 131°30'816.3
2018-Jul-20 02:30N 54°22' W 131°17'816.4
2018-Jul-20 02:00N 54°20' W 131°03'816.3
2018-Jul-20 01:30N 54°18' W 130°50'713.8
2018-Jul-20 01:00N 54°14' W 130°41'917.8
2018-Jul-20 00:30N 54°09' W 130°28'917.7
2018-Jul-20 00:00N 54°03' W 130°16'917.6
2018-Jul-19 23:30N 53°55' W 130°11'917.4
2018-Jul-19 23:00N 53°49' W 129°60'8516.8
2018-Jul-19 17:58N 52°35' W 128°53'817.6
2018-Jul-19 17:30N 52°27' W 128°52'917.2
2018-Jul-19 17:01N 52°18' W 128°51'917.3
2018-Jul-19 16:30N 52°09' W 128°52'917.4
2018-Jul-19 16:00N 52°01' W 128°47'917.2
2018-Jul-19 15:31N 51°53' W 128°41'917.4
2018-Jul-19 15:00N 51°45' W 128°36'816.9
2018-Jul-19 14:30N 51°37' W 128°32'1717.1
2018-Jul-19 13:30N 51°20' W 128°29'917.2
2018-Jul-19 13:00N 51°14' W 128°20'917.4
2018-Jul-19 12:30N 51°08' W 128°09'917.5
2018-Jul-19 12:00N 51°03' W 127°58'918.1
2018-Jul-19 11:30N 50°58' W 127°46'918.4
2018-Jul-19 11:00N 50°52' W 127°35'918.3
2018-Jul-19 10:31N 50°49' W 127°21'918.2
2018-Jul-19 10:00N 50°45' W 127°08'3212.9
2018-Jul-19 10:00N 50°42' W 127°06'714.9 270 / 171022.0 5.4 14.0 8.010.0
2018-Jul-19 09:30N 50°42' W 126°54'918.0
2018-Jul-19 09:00N 50°36' W 126°43'713.6
2018-Jul-19 08:30N 50°31' W 126°36'4618.4
2018-Jul-19 06:00N 50°20' W 125°26'816.7
2018-Jul-19 05:29N 50°12' W 125°22'612.9
2018-Jul-19 05:01N 50°07' W 125°18'713.4
2018-Jul-19 04:30N 50°01' W 125°13'714.9
2018-Jul-19 04:01N 49°55' W 125°05'918.6
2018-Jul-19 03:30N 49°50' W 124°54'816.6
2018-Jul-19 03:00N 49°45' W 124°43'917.3
2018-Jul-19 02:30N 49°39' W 124°33'4720.5
2018-Jul-19 00:11N 49°19' W 123°27'721.7
2018-Jul-18 23:53N 49°19' W 123°17'615.7
2018-Jul-18 23:30N 49°19' W 123°07'1 2.3
2018-Jul-18 22:58N 49°17' W 123°07'0 0.0
2018-Jul-18 22:28N 49°17' W 123°07'0 0.0
2018-Jul-18 21:58N 49°17' W 123°07'0 0.0
2018-Jul-18 21:28N 49°17' W 123°07'0 0.0
2018-Jul-18 20:58N 49°17' W 123°07'0 0.0
2018-Jul-18 20:28N 49°17' W 123°07'0 0.0
2018-Jul-18 19:58N 49°17' W 123°07'0 0.0
2018-Jul-18 19:28N 49°17' W 123°07'0 0.0
2018-Jul-18 18:58N 49°17' W 123°07'0 0.0
2018-Jul-18 18:13N 49°17' W 123°07'0 0.0
2018-Jul-18 15:01N 49°17' W 123°07'0 0.0
2018-Jul-18 14:43N 49°17' W 123°07'0 0.0
2018-Jul-18 14:13N 49°17' W 123°07'1 1.8
2018-Jul-18 13:29N 49°19' W 123°08'4 8.9
2018-Jul-18 13:00N 49°19' W 123°14'3411.2
2018-Jul-18 10:00N 49°18' W 124°06'432.1 280 / 181016.010.8 19.015.615.0
2018-Jul-18 09:51N 49°22' W 124°05'812.1
2018-Jul-18 09:11N 49°25' W 124°17'511.8
2018-Jul-18 08:45N 49°27' W 124°24'511.7
2018-Jul-18 08:19N 49°31' W 124°30'511.7
2018-Jul-18 07:55N 49°35' W 124°34'511.8
2018-Jul-18 07:30N 49°38' W 124°39'611.7
2018-Jul-18 07:00N 49°42' W 124°45'611.4
2018-Jul-18 06:31N 49°47' W 124°51'611.5
2018-Jul-18 06:00N 49°51' W 124°58'917.1
2018-Jul-18 05:30N 49°56' W 125°08'714.8
2018-Jul-18 05:00N 50°03' W 125°14'714.4
2018-Jul-18 04:30N 50°08' W 125°21'6314.3
2018-Jul-18 00:06N 50°38' W 126°48'320.2
2018-Jul-17 23:58N 50°40' W 126°52'1022.0
2018-Jul-17 23:30N 50°44' W 127°06'1122.1
2018-Jul-17 23:00N 50°48' W 127°22'1122.0
2018-Jul-17 22:30N 50°54' W 127°38'1121.6
2018-Jul-17 22:00N 51°01' W 127°50'1121.5
2018-Jul-17 21:31N 51°12' W 127°53'1121.5
2018-Jul-17 21:00N 51°22' W 127°52'11698.7
2018-Jul-17 21:00N 51°12' W 127°48'2144.1 280 / 221018.010.8 16.014.310.0
2018-Jul-17 20:30N 51°33' W 127°52'1122.0
2018-Jul-17 20:01N 51°44' W 127°56'1121.6
2018-Jul-17 19:30N 51°55' W 127°56'1019.3
2018-Jul-17 19:01N 52°04' W 127°58'714.0
2018-Jul-17 18:31N 52°08' W 128°08'5 8.4
2018-Jul-17 17:55N 52°13' W 128°08'716.8
2018-Jul-17 17:29N 52°15' W 128°19'816.6
2018-Jul-17 17:00N 52°15' W 128°32'816.5
2018-Jul-17 16:30N 52°13' W 128°45'1021.0
2018-Jul-17 16:01N 52°11' W 129°02'1122.1
2018-Jul-17 15:31N 52°12' W 129°20'1121.2
2018-Jul-17 15:00N 52°14' W 129°37'1222.8
2018-Jul-17 14:30N 52°23' W 129°48'6622.1
2018-Jul-17 11:30N 53°17' W 130°53'1120.7
2018-Jul-17 10:59N 53°26' W 131°00'1021.3
2018-Jul-17 10:31N 53°37' W 130°59'1121.5
2018-Jul-17 10:00N 53°47' W 130°59'3218.3
2018-Jul-17 10:00N 53°48' W 130°54'1123.0 340 / 71020.0 5.4 14.012.210.0
2018-Jul-17 09:30N 53°59' W 131°00'1122.4
2018-Jul-17 09:00N 54°10' W 131°01'917.2
2018-Jul-17 08:30N 54°18' W 130°60'611.9
2018-Jul-17 08:01N 54°21' W 131°09'1122.3
2018-Jul-17 07:30N 54°24' W 131°27'16116.9
2018-Jul-16 22:00N 56°30' W 134°24'96 8.7 180 / 141018.0 5.4 12.010.110.0
2018-Jul-16 11:00N 58°06' W 134°12'28 1.2 220 / 61014.0 5.4 12.010.110.0
2018-Jul-15 11:00N 58°18' W 135°00'16 6.7 160 / 161020.0 5.4 11.0 9.010.0
2018-Jul-15 08:35N 58°13' W 135°29'315.0
2018-Jul-15 08:22N 58°15' W 135°35'514.5
2018-Jul-15 08:00N 58°17' W 135°43'714.3
2018-Jul-15 07:30N 58°17' W 135°57'814.9
2018-Jul-15 06:59N 58°16' W 136°11'56 2.8
2018-Jul-14 11:00N 58°30' W 137°54'5414.0 150 / 71026.010.8 12.0 7.910.0
2018-Jul-14 07:10N 58°17' W 136°15'615.7
2018-Jul-14 06:49N 58°15' W 136°05'515.9
2018-Jul-14 06:30N 58°16' W 135°56'714.8
2018-Jul-14 06:00N 58°17' W 135°42'917.3
2018-Jul-14 05:29N 58°14' W 135°26'5 0.2
2018-Jul-13 03:04N 58°09' W 135°22'92 5.7
2018-Jul-12 11:00N 56°42' W 134°30'   160 / 121025.0 5.4 12.0 7.910.0

Dump ship's entire track history